sensor_id;sensor_type;location;lat;lon;timestamp;temperature;humidity
13375;DHT22;6756;51.354;15.754;2022-10-31T00:03:23;11.70;99.90
13375;DHT22;6756;51.354;15.754;2022-10-31T00:07:23;11.70;99.90
13375;DHT22;6756;51.354;15.754;2022-10-31T00:11:24;11.70;99.90
13375;DHT22;6756;51.354;15.754;2022-10-31T00:15:25;11.70;99.90
13375;DHT22;6756;51.354;15.754;2022-10-31T00:19:26;11.70;99.90
13375;DHT22;6756;51.354;15.754;2022-10-31T00:23:27;11.90;99.90
13375;DHT22;6756;51.354;15.754;2022-10-31T00:27:28;11.80;99.90
13375;DHT22;6756;51.354;15.754;2022-10-31T00:31:29;11.90;99.90
13375;DHT22;6756;51.354;15.754;2022-10-31T00:35:30;11.80;99.90
13375;DHT22;6756;51.354;15.754;2022-10-31T00:39:30;11.90;99.90
13375;DHT22;6756;51.354;15.754;2022-10-31T00:43:31;12.00;99.90
13375;DHT22;6756;51.354;15.754;2022-10-31T00:47:32;12.00;99.90
13375;DHT22;6756;51.354;15.754;2022-10-31T00:51:33;12.10;99.90
13375;DHT22;6756;51.354;15.754;2022-10-31T00:55:34;12.20;99.90
13375;DHT22;6756;51.354;15.754;2022-10-31T00:59:38;12.20;99.90
13375;DHT22;6756;51.354;15.754;2022-10-31T01:03:41;12.30;99.90
13375;DHT22;6756;51.354;15.754;2022-10-31T01:07:42;12.30;99.90
13375;DHT22;6756;51.354;15.754;2022-10-31T01:11:43;12.30;99.90
13375;DHT22;6756;51.354;15.754;2022-10-31T01:15:53;12.30;99.90
13375;DHT22;6756;51.354;15.754;2022-10-31T01:19:53;12.40;99.90
13375;DHT22;6756;51.354;15.754;2022-10-31T01:23:55;12.40;99.90
13375;DHT22;6756;51.354;15.754;2022-10-31T01:27:56;12.40;99.90
13375;DHT22;6756;51.354;15.754;2022-10-31T01:31:57;12.40;99.90
13375;DHT22;6756;51.354;15.754;2022-10-31T01:35:57;12.40;99.90
13375;DHT22;6756;51.354;15.754;2022-10-31T01:39:58;12.40;99.90
13375;DHT22;6756;51.354;15.754;2022-10-31T01:44:02;12.40;99.90
13375;DHT22;6756;51.354;15.754;2022-10-31T01:48:08;12.40;99.90
13375;DHT22;6756;51.354;15.754;2022-10-31T01:52:38;12.50;99.90
13375;DHT22;6756;51.354;15.754;2022-10-31T01:56:40;12.50;99.90
13375;DHT22;6756;51.354;15.754;2022-10-31T02:00:44;12.40;99.90
13375;DHT22;6756;51.354;15.754;2022-10-31T02:04:48;12.50;99.90
13375;DHT22;6756;51.354;15.754;2022-10-31T02:08:50;12.50;99.90
13375;DHT22;6756;51.354;15.754;2022-10-31T02:12:53;12.60;99.90
13375;DHT22;6756;51.354;15.754;2022-10-31T02:16:56;12.50;99.90
13375;DHT22;6756;51.354;15.754;2022-10-31T02:21:09;12.50;99.90
13375;DHT22;6756;51.354;15.754;2022-10-31T02:29:53;12.40;99.90
13375;DHT22;6756;51.354;15.754;2022-10-31T02:34:01;12.40;99.90
13375;DHT22;6756;51.354;15.754;2022-10-31T02:50:35;12.10;99.90
13375;DHT22;6756;51.354;15.754;2022-10-31T02:54:37;12.00;99.90
13375;DHT22;6756;51.354;15.754;2022-10-31T02:58:41;12.00;99.90
13375;DHT22;6756;51.354;15.754;2022-10-31T03:03:00;11.90;99.90
13375;DHT22;6756;51.354;15.754;2022-10-31T03:07:11;11.80;99.90
13375;DHT22;6756;51.354;15.754;2022-10-31T03:11:17;11.80;99.90
13375;DHT22;6756;51.354;15.754;2022-10-31T03:19:41;11.60;99.90
13375;DHT22;6756;51.354;15.754;2022-10-31T03:23:44;11.60;99.90
13375;DHT22;6756;51.354;15.754;2022-10-31T03:27:47;11.60;99.90
13375;DHT22;6756;51.354;15.754;2022-10-31T03:31:58;11.50;99.90
13375;DHT22;6756;51.354;15.754;2022-10-31T03:36:00;11.40;99.90
13375;DHT22;6756;51.354;15.754;2022-10-31T03:40:05;11.40;99.90
13375;DHT22;6756;51.354;15.754;2022-10-31T03:44:12;11.50;99.90
13375;DHT22;6756;51.354;15.754;2022-10-31T03:48:16;11.60;99.90
13375;DHT22;6756;51.354;15.754;2022-10-31T03:52:33;11.60;99.90
13375;DHT22;6756;51.354;15.754;2022-10-31T04:01:15;11.70;99.90
13375;DHT22;6756;51.354;15.754;2022-10-31T04:05:18;11.70;99.90
13375;DHT22;6756;51.354;15.754;2022-10-31T04:09:20;11.70;99.90
13375;DHT22;6756;51.354;15.754;2022-10-31T04:13:28;11.70;99.90
13375;DHT22;6756;51.354;15.754;2022-10-31T04:17:32;11.80;99.90
13375;DHT22;6756;51.354;15.754;2022-10-31T04:21:34;12.00;99.90
13375;DHT22;6756;51.354;15.754;2022-10-31T04:25:35;12.00;1.00
13375;DHT22;6756;51.354;15.754;2022-10-31T04:29:35;12.10;1.00
13375;DHT22;6756;51.354;15.754;2022-10-31T04:33:36;12.00;99.90
13375;DHT22;6756;51.354;15.754;2022-10-31T04:37:37;12.10;13.30
13375;DHT22;6756;51.354;15.754;2022-10-31T04:41:38;12.20;99.90
13375;DHT22;6756;51.354;15.754;2022-10-31T04:45:38;12.30;99.90
13375;DHT22;6756;51.354;15.754;2022-10-31T04:49:39;12.30;99.90
13375;DHT22;6756;51.354;15.754;2022-10-31T04:53:40;12.30;99.90
13375;DHT22;6756;51.354;15.754;2022-10-31T04:57:49;12.30;99.90
13375;DHT22;6756;51.354;15.754;2022-10-31T05:01:50;12.30;99.90
13375;DHT22;6756;51.354;15.754;2022-10-31T05:05:51;12.40;99.90
13375;DHT22;6756;51.354;15.754;2022-10-31T05:09:52;12.40;99.90
13375;DHT22;6756;51.354;15.754;2022-10-31T05:13:53;12.40;99.90
13375;DHT22;6756;51.354;15.754;2022-10-31T05:17:54;12.40;99.90
13375;DHT22;6756;51.354;15.754;2022-10-31T05:21:55;12.40;99.90
13375;DHT22;6756;51.354;15.754;2022-10-31T05:25:56;12.30;99.90
13375;DHT22;6756;51.354;15.754;2022-10-31T05:29:57;12.20;99.90
13375;DHT22;6756;51.354;15.754;2022-10-31T05:33:58;12.20;99.90
13375;DHT22;6756;51.354;15.754;2022-10-31T05:37:59;12.10;99.90
13375;DHT22;6756;51.354;15.754;2022-10-31T05:42:00;12.00;1.00
13375;DHT22;6756;51.354;15.754;2022-10-31T05:46:01;11.90;99.90
13375;DHT22;6756;51.354;15.754;2022-10-31T05:50:02;11.90;1.00
13375;DHT22;6756;51.354;15.754;2022-10-31T05:54:03;11.90;1.00
13375;DHT22;6756;51.354;15.754;2022-10-31T05:58:04;11.90;1.00
13375;DHT22;6756;51.354;15.754;2022-10-31T06:02:05;11.90;1.00
13375;DHT22;6756;51.354;15.754;2022-10-31T06:06:07;11.90;1.00
13375;DHT22;6756;51.354;15.754;2022-10-31T06:10:08;12.00;1.00
13375;DHT22;6756;51.354;15.754;2022-10-31T06:14:09;12.00;99.90
13375;DHT22;6756;51.354;15.754;2022-10-31T06:18:09;12.00;1.00
13375;DHT22;6756;51.354;15.754;2022-10-31T06:22:10;12.00;1.00
13375;DHT22;6756;51.354;15.754;2022-10-31T06:26:11;12.10;1.00
13375;DHT22;6756;51.354;15.754;2022-10-31T06:30:12;12.10;1.00
13375;DHT22;6756;51.354;15.754;2022-10-31T06:34:13;12.20;99.90
13375;DHT22;6756;51.354;15.754;2022-10-31T06:38:14;12.30;99.90
13375;DHT22;6756;51.354;15.754;2022-10-31T06:42:16;12.30;99.90
13375;DHT22;6756;51.354;15.754;2022-10-31T06:46:16;12.40;99.90
13375;DHT22;6756;51.354;15.754;2022-10-31T06:50:17;12.50;99.90
13375;DHT22;6756;51.354;15.754;2022-10-31T06:54:18;12.50;99.90
13375;DHT22;6756;51.354;15.754;2022-10-31T06:58:19;12.60;83.70
13375;DHT22;6756;51.354;15.754;2022-10-31T07:02:20;12.70;33.80
13375;DHT22;6756;51.354;15.754;2022-10-31T07:06:21;12.90;1.40
13375;DHT22;6756;51.354;15.754;2022-10-31T07:10:22;13.00;1.00
13375;DHT22;6756;51.354;15.754;2022-10-31T07:14:24;13.10;1.00
13375;DHT22;6756;51.354;15.754;2022-10-31T07:18:24;13.30;1.00
13375;DHT22;6756;51.354;15.754;2022-10-31T07:22:31;13.40;1.00
13375;DHT22;6756;51.354;15.754;2022-10-31T07:26:32;13.60;99.90
13375;DHT22;6756;51.354;15.754;2022-10-31T07:30:33;13.70;99.90
13375;DHT22;6756;51.354;15.754;2022-10-31T07:34:34;13.80;99.90
13375;DHT22;6756;51.354;15.754;2022-10-31T07:38:34;14.00;99.90
13375;DHT22;6756;51.354;15.754;2022-10-31T07:42:39;14.10;99.90
13375;DHT22;6756;51.354;15.754;2022-10-31T07:46:40;14.30;99.90
13375;DHT22;6756;51.354;15.754;2022-10-31T07:50:41;14.40;99.90
13375;DHT22;6756;51.354;15.754;2022-10-31T07:54:41;14.60;99.90
13375;DHT22;6756;51.354;15.754;2022-10-31T07:58:42;14.70;99.90
13375;DHT22;6756;51.354;15.754;2022-10-31T08:02:43;14.90;31.50
13375;DHT22;6756;51.354;15.754;2022-10-31T08:06:44;15.10;1.00
13375;DHT22;6756;51.354;15.754;2022-10-31T08:10:45;15.20;57.60
13375;DHT22;6756;51.354;15.754;2022-10-31T08:14:45;15.40;1.00
13375;DHT22;6756;51.354;15.754;2022-10-31T08:18:46;15.50;1.00
13375;DHT22;6756;51.354;15.754;2022-10-31T08:23:03;15.60;1.00
13375;DHT22;6756;51.354;15.754;2022-10-31T08:27:04;15.80;1.00
13375;DHT22;6756;51.354;15.754;2022-10-31T08:31:04;15.90;1.00
13375;DHT22;6756;51.354;15.754;2022-10-31T08:35:06;16.00;1.00
13375;DHT22;6756;51.354;15.754;2022-10-31T08:39:07;16.10;1.00
13375;DHT22;6756;51.354;15.754;2022-10-31T08:43:16;16.30;1.00
13375;DHT22;6756;51.354;15.754;2022-10-31T08:47:16;16.40;1.00
13375;DHT22;6756;51.354;15.754;2022-10-31T08:51:17;16.50;1.00
13375;DHT22;6756;51.354;15.754;2022-10-31T08:55:18;16.50;1.00
13375;DHT22;6756;51.354;15.754;2022-10-31T08:59:19;16.60;1.00
13375;DHT22;6756;51.354;15.754;2022-10-31T09:03:25;16.70;1.00
13375;DHT22;6756;51.354;15.754;2022-10-31T09:07:26;16.60;1.00
13375;DHT22;6756;51.354;15.754;2022-10-31T09:11:27;16.70;1.00
13375;DHT22;6756;51.354;15.754;2022-10-31T09:15:28;16.90;1.00
13375;DHT22;6756;51.354;15.754;2022-10-31T09:19:29;16.90;1.00
13375;DHT22;6756;51.354;15.754;2022-10-31T09:23:30;17.00;1.00
13375;DHT22;6756;51.354;15.754;2022-10-31T09:27:31;17.10;1.00
13375;DHT22;6756;51.354;15.754;2022-10-31T09:31:31;17.20;1.00
13375;DHT22;6756;51.354;15.754;2022-10-31T09:35:33;17.30;1.00
13375;DHT22;6756;51.354;15.754;2022-10-31T09:39:33;17.40;1.00
13375;DHT22;6756;51.354;15.754;2022-10-31T09:52:24;17.50;1.00
13375;DHT22;6756;51.354;15.754;2022-10-31T09:56:28;17.70;1.00
13375;DHT22;6756;51.354;15.754;2022-10-31T10:00:29;17.80;1.00
13375;DHT22;6756;51.354;15.754;2022-10-31T10:04:54;17.90;1.00
13375;DHT22;6756;51.354;15.754;2022-10-31T10:08:57;18.10;1.00
13375;DHT22;6756;51.354;15.754;2022-10-31T10:17:40;18.20;99.90
13375;DHT22;6756;51.354;15.754;2022-10-31T10:26:06;18.40;1.00
13375;DHT22;6756;51.354;15.754;2022-10-31T10:30:17;18.60;99.90
13375;DHT22;6756;51.354;15.754;2022-10-31T10:34:40;18.80;99.90
13375;DHT22;6756;51.354;15.754;2022-10-31T10:38:52;18.90;99.90
13375;DHT22;6756;51.354;15.754;2022-10-31T10:47:25;19.00;99.90
13375;DHT22;6756;51.354;15.754;2022-10-31T10:56:18;19.40;99.90
13375;DHT22;6756;51.354;15.754;2022-10-31T11:00:31;19.50;99.90
13375;DHT22;6756;51.354;15.754;2022-10-31T11:04:34;19.40;99.90
13375;DHT22;6756;51.354;15.754;2022-10-31T11:08:36;19.50;99.90
13375;DHT22;6756;51.354;15.754;2022-10-31T11:12:37;19.40;99.90
13375;DHT22;6756;51.354;15.754;2022-10-31T11:16:45;19.50;99.90
13375;DHT22;6756;51.354;15.754;2022-10-31T11:20:52;19.70;99.90
13375;DHT22;6756;51.354;15.754;2022-10-31T11:24:54;19.60;99.90
13375;DHT22;6756;51.354;15.754;2022-10-31T11:28:59;19.60;99.90
13375;DHT22;6756;51.354;15.754;2022-10-31T11:33:00;19.60;99.90
13375;DHT22;6756;51.354;15.754;2022-10-31T11:37:20;19.60;99.90
13375;DHT22;6756;51.354;15.754;2022-10-31T11:41:34;19.60;99.90
13375;DHT22;6756;51.354;15.754;2022-10-31T11:45:35;19.80;99.90
13375;DHT22;6756;51.354;15.754;2022-10-31T11:49:39;20.00;99.90
13375;DHT22;6756;51.354;15.754;2022-10-31T11:53:50;20.00;99.90
13375;DHT22;6756;51.354;15.754;2022-10-31T11:57:54;20.00;99.90
13375;DHT22;6756;51.354;15.754;2022-10-31T12:02:00;19.90;99.90
13375;DHT22;6756;51.354;15.754;2022-10-31T12:06:18;20.10;99.90
13375;DHT22;6756;51.354;15.754;2022-10-31T12:10:24;20.20;99.90
13375;DHT22;6756;51.354;15.754;2022-10-31T12:19:04;20.30;99.90
13375;DHT22;6756;51.354;15.754;2022-10-31T12:41:26;20.30;99.90
13375;DHT22;6756;51.354;15.754;2022-10-31T12:45:41;20.20;99.90
13375;DHT22;6756;51.354;15.754;2022-10-31T12:54:11;20.10;99.90
13375;DHT22;6756;51.354;15.754;2022-10-31T13:07:28;20.50;99.90
13375;DHT22;6756;51.354;15.754;2022-10-31T13:11:35;20.50;99.90
13375;DHT22;6756;51.354;15.754;2022-10-31T13:16:22;20.60;99.90
13375;DHT22;6756;51.354;15.754;2022-10-31T13:24:39;20.70;99.90
13375;DHT22;6756;51.354;15.754;2022-10-31T13:28:50;20.60;99.90
13375;DHT22;6756;51.354;15.754;2022-10-31T13:41:21;20.50;99.90
13375;DHT22;6756;51.354;15.754;2022-10-31T13:45:27;20.50;99.90
13375;DHT22;6756;51.354;15.754;2022-10-31T13:53:57;20.50;99.90
13375;DHT22;6756;51.354;15.754;2022-10-31T13:57:58;20.40;99.90
13375;DHT22;6756;51.354;15.754;2022-10-31T14:02:02;20.30;99.90
13375;DHT22;6756;51.354;15.754;2022-10-31T14:06:14;20.30;99.90
13375;DHT22;6756;51.354;15.754;2022-10-31T14:10:35;20.20;99.90
13375;DHT22;6756;51.354;15.754;2022-10-31T14:14:44;20.10;99.90
13375;DHT22;6756;51.354;15.754;2022-10-31T14:31:44;19.60;1.00
13375;DHT22;6756;51.354;15.754;2022-10-31T14:40:06;19.30;1.00
13375;DHT22;6756;51.354;15.754;2022-10-31T14:52:17;18.60;99.90
13375;DHT22;6756;51.354;15.754;2022-10-31T14:56:49;18.30;99.90
13375;DHT22;6756;51.354;15.754;2022-10-31T15:00:55;18.00;99.90
13375;DHT22;6756;51.354;15.754;2022-10-31T15:05:00;17.80;1.00
13375;DHT22;6756;51.354;15.754;2022-10-31T15:09:02;17.50;1.00
13375;DHT22;6756;51.354;15.754;2022-10-31T15:13:23;17.20;99.90
13375;DHT22;6756;51.354;15.754;2022-10-31T15:17:25;17.00;99.90
13375;DHT22;6756;51.354;15.754;2022-10-31T15:21:27;16.70;99.90
13375;DHT22;6756;51.354;15.754;2022-10-31T15:25:33;16.40;1.00
13375;DHT22;6756;51.354;15.754;2022-10-31T15:29:35;16.10;41.40
13375;DHT22;6756;51.354;15.754;2022-10-31T15:33:44;15.80;99.90
13375;DHT22;6756;51.354;15.754;2022-10-31T15:37:47;15.50;99.90
13375;DHT22;6756;51.354;15.754;2022-10-31T15:41:53;15.30;9.00
13375;DHT22;6756;51.354;15.754;2022-10-31T15:45:56;15.00;99.90
13375;DHT22;6756;51.354;15.754;2022-10-31T15:49:59;14.80;99.90
13375;DHT22;6756;51.354;15.754;2022-10-31T15:54:00;14.60;99.90
13375;DHT22;6756;51.354;15.754;2022-10-31T15:58:04;14.40;99.90
13375;DHT22;6756;51.354;15.754;2022-10-31T16:02:11;14.20;54.20
13375;DHT22;6756;51.354;15.754;2022-10-31T16:06:21;14.10;1.00
13375;DHT22;6756;51.354;15.754;2022-10-31T16:10:24;13.90;99.90
13375;DHT22;6756;51.354;15.754;2022-10-31T16:14:28;13.70;99.90
13375;DHT22;6756;51.354;15.754;2022-10-31T16:18:35;13.60;99.90
13375;DHT22;6756;51.354;15.754;2022-10-31T16:22:38;13.40;95.50
13375;DHT22;6756;51.354;15.754;2022-10-31T16:26:39;13.30;99.90
13375;DHT22;6756;51.354;15.754;2022-10-31T16:30:43;13.10;99.90
13375;DHT22;6756;51.354;15.754;2022-10-31T16:34:44;13.00;99.90
13375;DHT22;6756;51.354;15.754;2022-10-31T16:38:45;12.90;99.90
13375;DHT22;6756;51.354;15.754;2022-10-31T16:42:46;12.80;99.90
13375;DHT22;6756;51.354;15.754;2022-10-31T16:47:12;12.70;99.90
13375;DHT22;6756;51.354;15.754;2022-10-31T16:51:13;12.50;1.00
13375;DHT22;6756;51.354;15.754;2022-10-31T16:55:15;12.40;1.00
13375;DHT22;6756;51.354;15.754;2022-10-31T16:59:16;12.30;1.00
13375;DHT22;6756;51.354;15.754;2022-10-31T17:03:18;12.20;9.30
13375;DHT22;6756;51.354;15.754;2022-10-31T17:07:19;12.10;37.40
13375;DHT22;6756;51.354;15.754;2022-10-31T17:11:23;12.00;99.90
13375;DHT22;6756;51.354;15.754;2022-10-31T17:15:26;11.90;99.90
13375;DHT22;6756;51.354;15.754;2022-10-31T17:19:28;11.70;99.90
13375;DHT22;6756;51.354;15.754;2022-10-31T17:23:29;11.70;99.90
13375;DHT22;6756;51.354;15.754;2022-10-31T17:27:30;11.50;99.90
13375;DHT22;6756;51.354;15.754;2022-10-31T17:31:32;11.40;99.90
13375;DHT22;6756;51.354;15.754;2022-10-31T17:35:36;11.30;99.90
13375;DHT22;6756;51.354;15.754;2022-10-31T17:39:36;11.30;99.90
13375;DHT22;6756;51.354;15.754;2022-10-31T17:43:37;11.10;99.90
13375;DHT22;6756;51.354;15.754;2022-10-31T17:47:38;11.00;99.90
13375;DHT22;6756;51.354;15.754;2022-10-31T17:51:44;11.00;99.90
13375;DHT22;6756;51.354;15.754;2022-10-31T17:55:45;10.90;99.90
13375;DHT22;6756;51.354;15.754;2022-10-31T17:59:46;10.80;99.90
13375;DHT22;6756;51.354;15.754;2022-10-31T18:03:47;10.70;99.90
13375;DHT22;6756;51.354;15.754;2022-10-31T18:07:51;10.70;99.90
13375;DHT22;6756;51.354;15.754;2022-10-31T18:11:52;10.60;99.90
13375;DHT22;6756;51.354;15.754;2022-10-31T18:15:53;10.60;99.90
13375;DHT22;6756;51.354;15.754;2022-10-31T18:19:54;10.60;99.90
13375;DHT22;6756;51.354;15.754;2022-10-31T18:23:58;10.50;99.90
13375;DHT22;6756;51.354;15.754;2022-10-31T18:27:59;10.40;99.90
13375;DHT22;6756;51.354;15.754;2022-10-31T18:32:01;10.40;99.90
13375;DHT22;6756;51.354;15.754;2022-10-31T18:36:06;10.30;99.90
13375;DHT22;6756;51.354;15.754;2022-10-31T18:40:08;10.30;99.90
13375;DHT22;6756;51.354;15.754;2022-10-31T18:44:09;10.20;99.90
13375;DHT22;6756;51.354;15.754;2022-10-31T18:48:12;10.10;99.90
13375;DHT22;6756;51.354;15.754;2022-10-31T18:52:13;10.10;99.90
13375;DHT22;6756;51.354;15.754;2022-10-31T18:56:14;10.10;99.90
13375;DHT22;6756;51.354;15.754;2022-10-31T19:00:15;10.10;99.90
13375;DHT22;6756;51.354;15.754;2022-10-31T19:04:18;10.10;99.90
13375;DHT22;6756;51.354;15.754;2022-10-31T19:08:19;10.00;99.90
13375;DHT22;6756;51.354;15.754;2022-10-31T19:12:19;10.00;99.90
13375;DHT22;6756;51.354;15.754;2022-10-31T19:16:20;10.00;99.90
13375;DHT22;6756;51.354;15.754;2022-10-31T19:20:21;10.00;99.90
13375;DHT22;6756;51.354;15.754;2022-10-31T19:24:22;9.90;99.90
13375;DHT22;6756;51.354;15.754;2022-10-31T19:28:23;9.90;99.90
13375;DHT22;6756;51.354;15.754;2022-10-31T19:32:24;9.80;99.90
13375;DHT22;6756;51.354;15.754;2022-10-31T19:36:25;9.80;99.90
13375;DHT22;6756;51.354;15.754;2022-10-31T19:40:26;9.80;99.90
13375;DHT22;6756;51.354;15.754;2022-10-31T19:44:27;9.80;99.90
13375;DHT22;6756;51.354;15.754;2022-10-31T19:48:30;9.80;99.90
13375;DHT22;6756;51.354;15.754;2022-10-31T19:52:34;9.80;99.90
13375;DHT22;6756;51.354;15.754;2022-10-31T19:56:38;9.80;99.90
13375;DHT22;6756;51.354;15.754;2022-10-31T20:00:39;9.80;99.90
13375;DHT22;6756;51.354;15.754;2022-10-31T20:04:40;9.80;99.90
13375;DHT22;6756;51.354;15.754;2022-10-31T20:08:41;9.90;99.90
13375;DHT22;6756;51.354;15.754;2022-10-31T20:12:42;9.90;99.90
13375;DHT22;6756;51.354;15.754;2022-10-31T20:16:44;9.80;99.90
13375;DHT22;6756;51.354;15.754;2022-10-31T20:20:45;9.70;99.90
13375;DHT22;6756;51.354;15.754;2022-10-31T20:24:46;9.60;99.90
13375;DHT22;6756;51.354;15.754;2022-10-31T20:28:46;9.50;99.90
13375;DHT22;6756;51.354;15.754;2022-10-31T20:32:48;9.50;99.90
13375;DHT22;6756;51.354;15.754;2022-10-31T20:36:49;9.50;99.90
13375;DHT22;6756;51.354;15.754;2022-10-31T20:40:50;9.40;99.90
13375;DHT22;6756;51.354;15.754;2022-10-31T20:44:51;9.40;99.90
13375;DHT22;6756;51.354;15.754;2022-10-31T20:48:52;9.30;99.90
13375;DHT22;6756;51.354;15.754;2022-10-31T20:52:54;9.30;99.90
13375;DHT22;6756;51.354;15.754;2022-10-31T20:56:55;9.40;99.90
13375;DHT22;6756;51.354;15.754;2022-10-31T21:00:56;9.40;99.90
13375;DHT22;6756;51.354;15.754;2022-10-31T21:04:57;9.30;99.90
13375;DHT22;6756;51.354;15.754;2022-10-31T21:08:57;9.20;99.90
13375;DHT22;6756;51.354;15.754;2022-10-31T21:12:58;9.20;99.90
13375;DHT22;6756;51.354;15.754;2022-10-31T21:16:59;9.30;99.90
13375;DHT22;6756;51.354;15.754;2022-10-31T21:21:00;9.30;99.90
13375;DHT22;6756;51.354;15.754;2022-10-31T21:25:02;9.30;99.90
13375;DHT22;6756;51.354;15.754;2022-10-31T21:29:04;9.20;99.90
13375;DHT22;6756;51.354;15.754;2022-10-31T21:33:05;9.10;99.90
13375;DHT22;6756;51.354;15.754;2022-10-31T21:37:06;9.10;99.90
13375;DHT22;6756;51.354;15.754;2022-10-31T21:41:10;9.00;99.90
13375;DHT22;6756;51.354;15.754;2022-10-31T21:45:11;9.00;99.90
13375;DHT22;6756;51.354;15.754;2022-10-31T21:49:12;9.20;99.90
13375;DHT22;6756;51.354;15.754;2022-10-31T21:53:13;9.30;99.90
13375;DHT22;6756;51.354;15.754;2022-10-31T21:57:32;9.40;99.90
13375;DHT22;6756;51.354;15.754;2022-10-31T22:01:34;9.40;99.90
13375;DHT22;6756;51.354;15.754;2022-10-31T22:05:35;9.30;99.90
13375;DHT22;6756;51.354;15.754;2022-10-31T22:09:36;9.30;99.90
13375;DHT22;6756;51.354;15.754;2022-10-31T22:13:38;9.30;99.90
13375;DHT22;6756;51.354;15.754;2022-10-31T22:17:40;9.40;99.90
13375;DHT22;6756;51.354;15.754;2022-10-31T22:21:43;9.50;99.90
13375;DHT22;6756;51.354;15.754;2022-10-31T22:25:44;9.50;99.90
13375;DHT22;6756;51.354;15.754;2022-10-31T22:29:45;9.50;99.90
13375;DHT22;6756;51.354;15.754;2022-10-31T22:33:47;9.50;99.90
13375;DHT22;6756;51.354;15.754;2022-10-31T22:37:48;9.50;99.90
13375;DHT22;6756;51.354;15.754;2022-10-31T22:41:49;9.50;99.90
13375;DHT22;6756;51.354;15.754;2022-10-31T22:45:57;9.50;99.90
13375;DHT22;6756;51.354;15.754;2022-10-31T22:50:00;9.50;99.90
13375;DHT22;6756;51.354;15.754;2022-10-31T22:54:01;9.50;99.90
13375;DHT22;6756;51.354;15.754;2022-10-31T22:58:01;9.40;99.90
13375;DHT22;6756;51.354;15.754;2022-10-31T23:02:02;9.30;99.90
13375;DHT22;6756;51.354;15.754;2022-10-31T23:06:04;9.30;99.90
13375;DHT22;6756;51.354;15.754;2022-10-31T23:10:06;9.30;99.90
13375;DHT22;6756;51.354;15.754;2022-10-31T23:14:11;9.20;99.90
13375;DHT22;6756;51.354;15.754;2022-10-31T23:18:13;9.20;99.90
13375;DHT22;6756;51.354;15.754;2022-10-31T23:22:13;9.00;99.90
13375;DHT22;6756;51.354;15.754;2022-10-31T23:26:14;9.00;99.90
13375;DHT22;6756;51.354;15.754;2022-10-31T23:30:34;9.10;99.90
13375;DHT22;6756;51.354;15.754;2022-10-31T23:34:34;9.00;99.90
13375;DHT22;6756;51.354;15.754;2022-10-31T23:38:35;9.00;99.90
13375;DHT22;6756;51.354;15.754;2022-10-31T23:42:36;8.90;99.90
13375;DHT22;6756;51.354;15.754;2022-10-31T23:46:37;8.80;99.90
13375;DHT22;6756;51.354;15.754;2022-10-31T23:50:38;8.70;99.90
13375;DHT22;6756;51.354;15.754;2022-10-31T23:54:38;8.70;99.90
13375;DHT22;6756;51.354;15.754;2022-10-31T23:58:40;8.60;99.90
